sensor_id;sensor_type;location;lat;lon;timestamp;P1;durP1;ratioP1;P2;durP2;ratioP2
21326;SDS011;10822;51.532;6.770;2023-08-08T00:01:33;4.53;;;2.40;;
21326;SDS011;10822;51.532;6.770;2023-08-08T00:04:00;3.72;;;1.90;;
21326;SDS011;10822;51.532;6.770;2023-08-08T00:06:26;3.17;;;1.85;;
21326;SDS011;10822;51.532;6.770;2023-08-08T00:08:52;3.30;;;1.73;;
21326;SDS011;10822;51.532;6.770;2023-08-08T00:11:18;2.78;;;1.67;;
21326;SDS011;10822;51.532;6.770;2023-08-08T00:13:44;3.20;;;1.90;;
21326;SDS011;10822;51.532;6.770;2023-08-08T00:16:10;2.90;;;1.70;;
21326;SDS011;10822;51.532;6.770;2023-08-08T00:18:36;2.78;;;1.70;;
21326;SDS011;10822;51.532;6.770;2023-08-08T00:21:02;4.13;;;1.63;;
21326;SDS011;10822;51.532;6.770;2023-08-08T00:23:28;4.35;;;1.90;;
21326;SDS011;10822;51.532;6.770;2023-08-08T00:25:53;3.38;;;2.00;;
21326;SDS011;10822;51.532;6.770;2023-08-08T00:28:19;4.68;;;1.90;;
21326;SDS011;10822;51.532;6.770;2023-08-08T00:30:45;3.00;;;1.60;;
21326;SDS011;10822;51.532;6.770;2023-08-08T00:33:11;2.35;;;1.63;;
21326;SDS011;10822;51.532;6.770;2023-08-08T00:35:37;4.05;;;1.80;;
21326;SDS011;10822;51.532;6.770;2023-08-08T00:38:03;3.25;;;1.83;;
21326;SDS011;10822;51.532;6.770;2023-08-08T00:40:29;3.22;;;1.90;;
21326;SDS011;10822;51.532;6.770;2023-08-08T00:42:55;3.28;;;1.80;;
21326;SDS011;10822;51.532;6.770;2023-08-08T00:45:21;3.58;;;1.88;;
21326;SDS011;10822;51.532;6.770;2023-08-08T00:47:47;3.05;;;1.80;;
21326;SDS011;10822;51.532;6.770;2023-08-08T00:50:13;4.75;;;1.83;;
21326;SDS011;10822;51.532;6.770;2023-08-08T00:52:40;4.43;;;1.80;;
21326;SDS011;10822;51.532;6.770;2023-08-08T00:55:07;2.13;;;1.60;;
21326;SDS011;10822;51.532;6.770;2023-08-08T00:57:33;2.67;;;1.70;;
21326;SDS011;10822;51.532;6.770;2023-08-08T01:00:03;3.38;;;1.80;;
21326;SDS011;10822;51.532;6.770;2023-08-08T01:02:29;3.78;;;1.95;;
21326;SDS011;10822;51.532;6.770;2023-08-08T01:04:55;4.13;;;1.70;;
21326;SDS011;10822;51.532;6.770;2023-08-08T01:07:33;3.75;;;1.67;;
21326;SDS011;10822;51.532;6.770;2023-08-08T01:12:32;4.10;;;1.50;;
21326;SDS011;10822;51.532;6.770;2023-08-08T01:14:59;2.58;;;1.60;;
21326;SDS011;10822;51.532;6.770;2023-08-08T01:17:25;3.13;;;2.10;;
21326;SDS011;10822;51.532;6.770;2023-08-08T01:19:51;5.93;;;1.80;;
21326;SDS011;10822;51.532;6.770;2023-08-08T01:22:32;7.35;;;1.95;;
21326;SDS011;10822;51.532;6.770;2023-08-08T01:25:01;4.50;;;1.70;;
21326;SDS011;10822;51.532;6.770;2023-08-08T01:27:28;4.82;;;1.83;;
21326;SDS011;10822;51.532;6.770;2023-08-08T01:29:54;4.25;;;2.00;;
21326;SDS011;10822;51.532;6.770;2023-08-08T01:32:20;3.97;;;1.83;;
21326;SDS011;10822;51.532;6.770;2023-08-08T01:34:46;3.88;;;1.80;;
21326;SDS011;10822;51.532;6.770;2023-08-08T01:37:13;5.00;;;1.90;;
21326;SDS011;10822;51.532;6.770;2023-08-08T01:39:41;3.90;;;1.88;;
21326;SDS011;10822;51.532;6.770;2023-08-08T01:42:08;3.67;;;1.65;;
21326;SDS011;10822;51.532;6.770;2023-08-08T01:44:34;2.38;;;1.60;;
21326;SDS011;10822;51.532;6.770;2023-08-08T01:47:00;2.75;;;1.98;;
21326;SDS011;10822;51.532;6.770;2023-08-08T01:49:26;3.08;;;1.83;;
21326;SDS011;10822;51.532;6.770;2023-08-08T01:51:52;4.53;;;2.42;;
21326;SDS011;10822;51.532;6.770;2023-08-08T01:54:19;6.72;;;2.58;;
21326;SDS011;10822;51.532;6.770;2023-08-08T01:56:45;3.92;;;2.05;;
21326;SDS011;10822;51.532;6.770;2023-08-08T01:59:11;3.25;;;2.00;;
21326;SDS011;10822;51.532;6.770;2023-08-08T02:01:37;3.90;;;2.10;;
21326;SDS011;10822;51.532;6.770;2023-08-08T02:04:03;4.68;;;2.35;;
21326;SDS011;10822;51.532;6.770;2023-08-08T02:06:29;4.00;;;2.25;;
21326;SDS011;10822;51.532;6.770;2023-08-08T02:08:55;4.85;;;2.30;;
21326;SDS011;10822;51.532;6.770;2023-08-08T02:11:21;4.63;;;2.10;;
21326;SDS011;10822;51.532;6.770;2023-08-08T02:13:47;3.70;;;2.08;;
21326;SDS011;10822;51.532;6.770;2023-08-08T02:16:13;3.00;;;1.73;;
21326;SDS011;10822;51.532;6.770;2023-08-08T02:18:39;6.68;;;2.00;;
21326;SDS011;10822;51.532;6.770;2023-08-08T02:21:09;4.88;;;2.05;;
21326;SDS011;10822;51.532;6.770;2023-08-08T02:23:35;3.70;;;2.20;;
21326;SDS011;10822;51.532;6.770;2023-08-08T02:26:01;3.53;;;2.00;;
21326;SDS011;10822;51.532;6.770;2023-08-08T02:28:28;4.53;;;2.20;;
21326;SDS011;10822;51.532;6.770;2023-08-08T02:30:54;3.35;;;1.75;;
21326;SDS011;10822;51.532;6.770;2023-08-08T02:33:20;3.63;;;1.70;;
21326;SDS011;10822;51.532;6.770;2023-08-08T02:35:46;2.83;;;1.90;;
21326;SDS011;10822;51.532;6.770;2023-08-08T02:38:12;3.90;;;2.00;;
21326;SDS011;10822;51.532;6.770;2023-08-08T02:40:38;3.47;;;1.75;;
21326;SDS011;10822;51.532;6.770;2023-08-08T02:43:04;4.22;;;2.00;;
21326;SDS011;10822;51.532;6.770;2023-08-08T02:45:30;3.58;;;1.73;;
21326;SDS011;10822;51.532;6.770;2023-08-08T02:47:56;4.35;;;2.08;;
21326;SDS011;10822;51.532;6.770;2023-08-08T02:50:22;2.67;;;2.08;;
21326;SDS011;10822;51.532;6.770;2023-08-08T02:52:48;5.07;;;1.92;;
21326;SDS011;10822;51.532;6.770;2023-08-08T02:55:14;2.92;;;2.10;;
21326;SDS011;10822;51.532;6.770;2023-08-08T02:57:40;4.72;;;1.90;;
21326;SDS011;10822;51.532;6.770;2023-08-08T03:00:06;2.80;;;1.90;;
21326;SDS011;10822;51.532;6.770;2023-08-08T03:02:33;3.65;;;1.90;;
21326;SDS011;10822;51.532;6.770;2023-08-08T03:04:59;5.60;;;2.35;;
21326;SDS011;10822;51.532;6.770;2023-08-08T03:07:25;3.92;;;1.90;;
21326;SDS011;10822;51.532;6.770;2023-08-08T03:09:51;4.80;;;2.10;;
21326;SDS011;10822;51.532;6.770;2023-08-08T03:12:17;5.80;;;2.70;;
21326;SDS011;10822;51.532;6.770;2023-08-08T03:14:43;3.22;;;1.95;;
21326;SDS011;10822;51.532;6.770;2023-08-08T03:17:09;5.95;;;2.65;;
21326;SDS011;10822;51.532;6.770;2023-08-08T03:19:35;4.57;;;2.17;;
21326;SDS011;10822;51.532;6.770;2023-08-08T03:22:01;5.22;;;2.58;;
21326;SDS011;10822;51.532;6.770;2023-08-08T03:24:27;5.05;;;2.58;;
21326;SDS011;10822;51.532;6.770;2023-08-08T03:26:53;5.50;;;2.80;;
21326;SDS011;10822;51.532;6.770;2023-08-08T03:29:19;7.20;;;2.78;;
21326;SDS011;10822;51.532;6.770;2023-08-08T03:31:45;6.53;;;2.78;;
21326;SDS011;10822;51.532;6.770;2023-08-08T03:34:12;8.55;;;3.20;;
21326;SDS011;10822;51.532;6.770;2023-08-08T03:36:38;6.75;;;3.22;;
21326;SDS011;10822;51.532;6.770;2023-08-08T03:39:04;7.38;;;2.78;;
21326;SDS011;10822;51.532;6.770;2023-08-08T03:41:32;6.20;;;3.22;;
21326;SDS011;10822;51.532;6.770;2023-08-08T03:43:58;6.07;;;3.13;;
21326;SDS011;10822;51.532;6.770;2023-08-08T03:46:24;6.47;;;3.45;;
21326;SDS011;10822;51.532;6.770;2023-08-08T03:48:50;7.32;;;2.97;;
21326;SDS011;10822;51.532;6.770;2023-08-08T03:51:16;7.07;;;3.13;;
21326;SDS011;10822;51.532;6.770;2023-08-08T03:53:42;6.72;;;3.17;;
21326;SDS011;10822;51.532;6.770;2023-08-08T03:56:08;8.57;;;3.60;;
21326;SDS011;10822;51.532;6.770;2023-08-08T03:58:34;5.90;;;3.42;;
21326;SDS011;10822;51.532;6.770;2023-08-08T04:01:00;5.95;;;2.92;;
21326;SDS011;10822;51.532;6.770;2023-08-08T04:03:26;7.88;;;3.85;;
21326;SDS011;10822;51.532;6.770;2023-08-08T04:05:52;8.07;;;3.60;;
21326;SDS011;10822;51.532;6.770;2023-08-08T04:08:18;9.15;;;3.50;;
21326;SDS011;10822;51.532;6.770;2023-08-08T04:10:45;7.78;;;3.38;;
21326;SDS011;10822;51.532;6.770;2023-08-08T04:13:12;5.75;;;3.22;;
21326;SDS011;10822;51.532;6.770;2023-08-08T04:15:38;8.73;;;3.40;;
21326;SDS011;10822;51.532;6.770;2023-08-08T04:18:04;8.27;;;3.40;;
21326;SDS011;10822;51.532;6.770;2023-08-08T04:20:32;7.50;;;3.20;;
21326;SDS011;10822;51.532;6.770;2023-08-08T04:22:58;6.95;;;3.20;;
21326;SDS011;10822;51.532;6.770;2023-08-08T04:25:24;8.25;;;3.60;;
21326;SDS011;10822;51.532;6.770;2023-08-08T04:27:50;9.75;;;3.35;;
21326;SDS011;10822;51.532;6.770;2023-08-08T04:30:16;7.15;;;3.22;;
21326;SDS011;10822;51.532;6.770;2023-08-08T04:32:42;8.70;;;3.50;;
21326;SDS011;10822;51.532;6.770;2023-08-08T04:35:08;8.98;;;3.55;;
21326;SDS011;10822;51.532;6.770;2023-08-08T04:37:34;8.48;;;3.95;;
21326;SDS011;10822;51.532;6.770;2023-08-08T04:40:00;8.32;;;3.92;;
21326;SDS011;10822;51.532;6.770;2023-08-08T04:42:26;7.55;;;4.00;;
21326;SDS011;10822;51.532;6.770;2023-08-08T04:44:52;7.28;;;3.78;;
21326;SDS011;10822;51.532;6.770;2023-08-08T04:47:18;6.75;;;3.72;;
21326;SDS011;10822;51.532;6.770;2023-08-08T04:49:44;8.63;;;4.43;;
21326;SDS011;10822;51.532;6.770;2023-08-08T04:52:10;7.47;;;3.92;;
21326;SDS011;10822;51.532;6.770;2023-08-08T04:54:36;9.88;;;4.55;;
21326;SDS011;10822;51.532;6.770;2023-08-08T04:57:01;8.52;;;4.25;;
21326;SDS011;10822;51.532;6.770;2023-08-08T04:59:27;9.43;;;4.55;;
21326;SDS011;10822;51.532;6.770;2023-08-08T05:01:53;11.43;;;4.90;;
21326;SDS011;10822;51.532;6.770;2023-08-08T05:04:19;10.73;;;4.38;;
21326;SDS011;10822;51.532;6.770;2023-08-08T05:06:45;8.52;;;4.30;;
21326;SDS011;10822;51.532;6.770;2023-08-08T05:09:11;8.70;;;5.07;;
21326;SDS011;10822;51.532;6.770;2023-08-08T05:11:37;10.90;;;5.28;;
21326;SDS011;10822;51.532;6.770;2023-08-08T05:14:03;7.82;;;4.80;;
21326;SDS011;10822;51.532;6.770;2023-08-08T05:16:29;9.07;;;5.65;;
21326;SDS011;10822;51.532;6.770;2023-08-08T05:18:55;9.75;;;5.50;;
21326;SDS011;10822;51.532;6.770;2023-08-08T05:21:21;12.05;;;5.93;;
21326;SDS011;10822;51.532;6.770;2023-08-08T05:23:47;9.45;;;5.50;;
21326;SDS011;10822;51.532;6.770;2023-08-08T05:26:14;10.27;;;5.50;;
21326;SDS011;10822;51.532;6.770;2023-08-08T05:28:40;9.07;;;6.10;;
21326;SDS011;10822;51.532;6.770;2023-08-08T05:31:06;12.75;;;6.20;;
21326;SDS011;10822;51.532;6.770;2023-08-08T05:33:32;9.40;;;5.88;;
21326;SDS011;10822;51.532;6.770;2023-08-08T05:35:58;9.25;;;5.90;;
21326;SDS011;10822;51.532;6.770;2023-08-08T05:38:24;9.90;;;5.93;;
21326;SDS011;10822;51.532;6.770;2023-08-08T05:40:50;12.07;;;5.57;;
21326;SDS011;10822;51.532;6.770;2023-08-08T05:43:17;12.57;;;5.70;;
21326;SDS011;10822;51.532;6.770;2023-08-08T05:45:43;12.60;;;6.00;;
21326;SDS011;10822;51.532;6.770;2023-08-08T05:48:09;15.13;;;6.25;;
21326;SDS011;10822;51.532;6.770;2023-08-08T05:50:37;16.73;;;7.07;;
21326;SDS011;10822;51.532;6.770;2023-08-08T05:53:03;12.90;;;7.18;;
21326;SDS011;10822;51.532;6.770;2023-08-08T05:55:29;12.18;;;6.90;;
21326;SDS011;10822;51.532;6.770;2023-08-08T05:57:55;14.23;;;7.63;;
21326;SDS011;10822;51.532;6.770;2023-08-08T06:00:21;15.40;;;7.57;;
21326;SDS011;10822;51.532;6.770;2023-08-08T06:02:48;13.80;;;7.57;;
21326;SDS011;10822;51.532;6.770;2023-08-08T06:05:16;13.35;;;8.07;;
21326;SDS011;10822;51.532;6.770;2023-08-08T06:07:42;18.15;;;8.88;;
21326;SDS011;10822;51.532;6.770;2023-08-08T06:10:08;16.35;;;9.02;;
21326;SDS011;10822;51.532;6.770;2023-08-08T06:12:34;15.05;;;8.38;;
21326;SDS011;10822;51.532;6.770;2023-08-08T06:15:00;16.88;;;8.50;;
21326;SDS011;10822;51.532;6.770;2023-08-08T06:17:26;15.98;;;8.45;;
21326;SDS011;10822;51.532;6.770;2023-08-08T06:19:52;15.90;;;9.38;;
21326;SDS011;10822;51.532;6.770;2023-08-08T06:22:19;14.73;;;8.90;;
21326;SDS011;10822;51.532;6.770;2023-08-08T06:24:45;15.23;;;8.60;;
21326;SDS011;10822;51.532;6.770;2023-08-08T06:27:12;14.90;;;8.90;;
21326;SDS011;10822;51.532;6.770;2023-08-08T06:29:38;15.68;;;9.07;;
21326;SDS011;10822;51.532;6.770;2023-08-08T06:32:04;16.17;;;8.93;;
21326;SDS011;10822;51.532;6.770;2023-08-08T06:34:30;15.07;;;8.13;;
21326;SDS011;10822;51.532;6.770;2023-08-08T06:36:56;17.05;;;8.93;;
21326;SDS011;10822;51.532;6.770;2023-08-08T06:39:22;16.80;;;9.80;;
21326;SDS011;10822;51.532;6.770;2023-08-08T06:41:48;15.73;;;8.98;;
21326;SDS011;10822;51.532;6.770;2023-08-08T06:44:14;14.52;;;9.32;;
21326;SDS011;10822;51.532;6.770;2023-08-08T06:46:40;14.40;;;8.88;;
21326;SDS011;10822;51.532;6.770;2023-08-08T06:49:06;16.02;;;9.68;;
21326;SDS011;10822;51.532;6.770;2023-08-08T06:51:33;14.13;;;10.00;;
21326;SDS011;10822;51.532;6.770;2023-08-08T06:54:00;17.27;;;10.10;;
21326;SDS011;10822;51.532;6.770;2023-08-08T06:56:26;19.27;;;9.63;;
21326;SDS011;10822;51.532;6.770;2023-08-08T06:58:52;18.02;;;10.27;;
21326;SDS011;10822;51.532;6.770;2023-08-08T07:01:18;15.95;;;9.32;;
21326;SDS011;10822;51.532;6.770;2023-08-08T07:03:45;13.95;;;9.10;;
21326;SDS011;10822;51.532;6.770;2023-08-08T07:06:11;12.75;;;8.07;;
21326;SDS011;10822;51.532;6.770;2023-08-08T07:08:37;12.57;;;8.00;;
21326;SDS011;10822;51.532;6.770;2023-08-08T07:11:07;13.13;;;7.95;;
21326;SDS011;10822;51.532;6.770;2023-08-08T07:13:33;14.38;;;7.18;;
21326;SDS011;10822;51.532;6.770;2023-08-08T07:15:59;10.35;;;6.88;;
21326;SDS011;10822;51.532;6.770;2023-08-08T07:18:25;12.32;;;6.70;;
21326;SDS011;10822;51.532;6.770;2023-08-08T07:20:51;13.32;;;6.57;;
21326;SDS011;10822;51.532;6.770;2023-08-08T07:23:17;11.27;;;5.90;;
21326;SDS011;10822;51.532;6.770;2023-08-08T07:25:43;9.45;;;6.28;;
21326;SDS011;10822;51.532;6.770;2023-08-08T07:28:11;10.30;;;6.57;;
21326;SDS011;10822;51.532;6.770;2023-08-08T07:30:39;15.68;;;6.35;;
21326;SDS011;10822;51.532;6.770;2023-08-08T07:33:05;13.23;;;6.10;;
21326;SDS011;10822;51.532;6.770;2023-08-08T07:35:33;11.32;;;5.53;;
21326;SDS011;10822;51.532;6.770;2023-08-08T07:37:59;8.07;;;5.25;;
21326;SDS011;10822;51.532;6.770;2023-08-08T07:40:25;10.27;;;5.20;;
21326;SDS011;10822;51.532;6.770;2023-08-08T07:42:52;11.30;;;4.90;;
21326;SDS011;10822;51.532;6.770;2023-08-08T07:45:18;6.65;;;4.20;;
21326;SDS011;10822;51.532;6.770;2023-08-08T07:47:44;8.63;;;3.88;;
21326;SDS011;10822;51.532;6.770;2023-08-08T07:50:10;10.80;;;3.70;;
21326;SDS011;10822;51.532;6.770;2023-08-08T07:52:36;7.95;;;3.50;;
21326;SDS011;10822;51.532;6.770;2023-08-08T07:55:02;8.80;;;3.00;;
21326;SDS011;10822;51.532;6.770;2023-08-08T07:57:29;6.20;;;2.95;;
21326;SDS011;10822;51.532;6.770;2023-08-08T07:59:56;6.82;;;2.63;;
21326;SDS011;10822;51.532;6.770;2023-08-08T08:02:22;8.10;;;3.08;;
21326;SDS011;10822;51.532;6.770;2023-08-08T08:04:48;5.35;;;2.30;;
21326;SDS011;10822;51.532;6.770;2023-08-08T08:07:14;8.15;;;2.58;;
21326;SDS011;10822;51.532;6.770;2023-08-08T08:09:40;7.07;;;2.67;;
21326;SDS011;10822;51.532;6.770;2023-08-08T08:12:07;6.28;;;2.15;;
21326;SDS011;10822;51.532;6.770;2023-08-08T08:14:34;7.10;;;2.28;;
21326;SDS011;10822;51.532;6.770;2023-08-08T08:17:00;5.35;;;2.42;;
21326;SDS011;10822;51.532;6.770;2023-08-08T08:19:26;4.78;;;2.10;;
21326;SDS011;10822;51.532;6.770;2023-08-08T08:21:52;4.75;;;2.05;;
21326;SDS011;10822;51.532;6.770;2023-08-08T08:24:18;5.88;;;2.35;;
21326;SDS011;10822;51.532;6.770;2023-08-08T08:26:44;8.13;;;2.58;;
21326;SDS011;10822;51.532;6.770;2023-08-08T08:29:10;5.78;;;2.03;;
21326;SDS011;10822;51.532;6.770;2023-08-08T08:31:36;5.05;;;2.13;;
21326;SDS011;10822;51.532;6.770;2023-08-08T08:34:03;5.70;;;1.90;;
21326;SDS011;10822;51.532;6.770;2023-08-08T08:36:31;5.53;;;2.33;;
21326;SDS011;10822;51.532;6.770;2023-08-08T08:38:56;7.57;;;1.80;;
21326;SDS011;10822;51.532;6.770;2023-08-08T08:41:26;4.82;;;1.70;;
21326;SDS011;10822;51.532;6.770;2023-08-08T08:43:53;5.00;;;2.10;;
21326;SDS011;10822;51.532;6.770;2023-08-08T08:46:20;4.82;;;1.80;;
21326;SDS011;10822;51.532;6.770;2023-08-08T08:48:47;4.20;;;1.90;;
21326;SDS011;10822;51.532;6.770;2023-08-08T08:51:13;6.43;;;2.00;;
21326;SDS011;10822;51.532;6.770;2023-08-08T08:53:40;3.58;;;1.70;;
21326;SDS011;10822;51.532;6.770;2023-08-08T08:56:08;7.00;;;2.08;;
21326;SDS011;10822;51.532;6.770;2023-08-08T08:58:34;5.10;;;1.70;;
21326;SDS011;10822;51.532;6.770;2023-08-08T09:01:00;8.75;;;2.17;;
21326;SDS011;10822;51.532;6.770;2023-08-08T09:03:26;4.47;;;1.40;;
21326;SDS011;10822;51.532;6.770;2023-08-08T09:05:52;3.13;;;1.58;;
21326;SDS011;10822;51.532;6.770;2023-08-08T09:08:19;2.72;;;1.33;;
21326;SDS011;10822;51.532;6.770;2023-08-08T09:10:45;7.65;;;2.03;;
21326;SDS011;10822;51.532;6.770;2023-08-08T09:13:11;8.13;;;1.85;;
21326;SDS011;10822;51.532;6.770;2023-08-08T09:15:37;7.05;;;1.90;;
21326;SDS011;10822;51.532;6.770;2023-08-08T09:18:04;10.25;;;2.58;;
21326;SDS011;10822;51.532;6.770;2023-08-08T09:20:30;4.93;;;1.80;;
21326;SDS011;10822;51.532;6.770;2023-08-08T09:22:56;4.03;;;1.48;;
21326;SDS011;10822;51.532;6.770;2023-08-08T09:25:23;8.20;;;2.33;;
21326;SDS011;10822;51.532;6.770;2023-08-08T09:27:50;5.03;;;1.80;;
21326;SDS011;10822;51.532;6.770;2023-08-08T09:30:18;3.35;;;1.48;;
21326;SDS011;10822;51.532;6.770;2023-08-08T09:32:44;5.70;;;1.77;;
21326;SDS011;10822;51.532;6.770;2023-08-08T09:35:10;5.75;;;1.85;;
21326;SDS011;10822;51.532;6.770;2023-08-08T09:37:36;4.68;;;1.70;;
21326;SDS011;10822;51.532;6.770;2023-08-08T09:40:03;6.45;;;1.95;;
21326;SDS011;10822;51.532;6.770;2023-08-08T09:42:34;4.45;;;1.85;;
21326;SDS011;10822;51.532;6.770;2023-08-08T09:45:01;4.95;;;2.17;;
21326;SDS011;10822;51.532;6.770;2023-08-08T09:47:27;5.18;;;1.83;;
21326;SDS011;10822;51.532;6.770;2023-08-08T09:49:57;7.00;;;2.05;;
21326;SDS011;10822;51.532;6.770;2023-08-08T09:52:24;6.75;;;2.40;;
21326;SDS011;10822;51.532;6.770;2023-08-08T09:54:52;4.97;;;1.90;;
21326;SDS011;10822;51.532;6.770;2023-08-08T09:57:18;3.85;;;1.90;;
21326;SDS011;10822;51.532;6.770;2023-08-08T09:59:45;6.38;;;1.83;;
21326;SDS011;10822;51.532;6.770;2023-08-08T10:02:13;9.48;;;1.73;;
21326;SDS011;10822;51.532;6.770;2023-08-08T10:04:41;7.80;;;2.15;;
21326;SDS011;10822;51.532;6.770;2023-08-08T10:07:07;3.45;;;1.63;;
21326;SDS011;10822;51.532;6.770;2023-08-08T10:09:35;3.85;;;1.75;;
21326;SDS011;10822;51.532;6.770;2023-08-08T10:12:02;5.43;;;2.67;;
21326;SDS011;10822;51.532;6.770;2023-08-08T10:14:29;3.65;;;1.80;;
21326;SDS011;10822;51.532;6.770;2023-08-08T10:16:56;4.13;;;1.70;;
21326;SDS011;10822;51.532;6.770;2023-08-08T10:19:22;6.10;;;2.08;;
21326;SDS011;10822;51.532;6.770;2023-08-08T10:21:50;5.88;;;2.00;;
21326;SDS011;10822;51.532;6.770;2023-08-08T10:24:20;6.75;;;2.05;;
21326;SDS011;10822;51.532;6.770;2023-08-08T10:26:53;4.90;;;2.05;;
21326;SDS011;10822;51.532;6.770;2023-08-08T10:29:20;5.22;;;2.20;;
21326;SDS011;10822;51.532;6.770;2023-08-08T10:31:52;2.80;;;1.88;;
21326;SDS011;10822;51.532;6.770;2023-08-08T10:34:20;4.65;;;2.10;;
21326;SDS011;10822;51.532;6.770;2023-08-08T10:36:50;5.53;;;2.10;;
21326;SDS011;10822;51.532;6.770;2023-08-08T10:39:17;5.88;;;2.50;;
21326;SDS011;10822;51.532;6.770;2023-08-08T10:41:44;9.95;;;2.25;;
21326;SDS011;10822;51.532;6.770;2023-08-08T10:44:10;6.22;;;2.00;;
21326;SDS011;10822;51.532;6.770;2023-08-08T10:46:39;6.47;;;2.17;;
21326;SDS011;10822;51.532;6.770;2023-08-08T10:49:06;4.43;;;1.95;;
21326;SDS011;10822;51.532;6.770;2023-08-08T10:51:39;13.85;;;2.53;;
21326;SDS011;10822;51.532;6.770;2023-08-08T10:54:09;7.30;;;1.90;;
21326;SDS011;10822;51.532;6.770;2023-08-08T10:56:37;2.97;;;1.40;;
21326;SDS011;10822;51.532;6.770;2023-08-08T10:59:13;3.10;;;1.70;;
21326;SDS011;10822;51.532;6.770;2023-08-08T11:01:40;3.15;;;1.30;;
21326;SDS011;10822;51.532;6.770;2023-08-08T11:04:06;4.22;;;1.70;;
21326;SDS011;10822;51.532;6.770;2023-08-08T11:06:32;4.47;;;1.63;;
21326;SDS011;10822;51.532;6.770;2023-08-08T11:08:59;4.78;;;1.77;;
21326;SDS011;10822;51.532;6.770;2023-08-08T11:11:26;4.30;;;1.40;;
21326;SDS011;10822;51.532;6.770;2023-08-08T11:13:52;4.15;;;1.83;;
21326;SDS011;10822;51.532;6.770;2023-08-08T11:16:18;3.45;;;1.70;;
21326;SDS011;10822;51.532;6.770;2023-08-08T11:18:45;4.25;;;1.90;;
21326;SDS011;10822;51.532;6.770;2023-08-08T11:21:10;3.30;;;1.77;;
21326;SDS011;10822;51.532;6.770;2023-08-08T11:23:37;4.47;;;1.90;;
21326;SDS011;10822;51.532;6.770;2023-08-08T11:26:03;3.97;;;1.60;;
21326;SDS011;10822;51.532;6.770;2023-08-08T11:28:29;2.70;;;1.67;;
21326;SDS011;10822;51.532;6.770;2023-08-08T11:30:55;4.60;;;1.65;;
21326;SDS011;10822;51.532;6.770;2023-08-08T11:33:22;4.85;;;1.75;;
21326;SDS011;10822;51.532;6.770;2023-08-08T11:35:48;8.85;;;2.10;;
21326;SDS011;10822;51.532;6.770;2023-08-08T11:38:14;7.25;;;2.00;;
21326;SDS011;10822;51.532;6.770;2023-08-08T11:40:40;4.35;;;1.63;;
21326;SDS011;10822;51.532;6.770;2023-08-08T11:43:07;11.77;;;2.00;;
21326;SDS011;10822;51.532;6.770;2023-08-08T11:45:33;3.55;;;1.88;;
21326;SDS011;10822;51.532;6.770;2023-08-08T11:48:00;4.25;;;1.48;;
21326;SDS011;10822;51.532;6.770;2023-08-08T11:50:26;4.47;;;1.60;;
21326;SDS011;10822;51.532;6.770;2023-08-08T11:52:53;4.97;;;1.80;;
21326;SDS011;10822;51.532;6.770;2023-08-08T11:55:19;3.45;;;1.58;;
21326;SDS011;10822;51.532;6.770;2023-08-08T11:57:49;3.28;;;1.30;;
21326;SDS011;10822;51.532;6.770;2023-08-08T12:00:15;3.05;;;1.35;;
21326;SDS011;10822;51.532;6.770;2023-08-08T12:02:42;2.70;;;1.40;;
21326;SDS011;10822;51.532;6.770;2023-08-08T12:05:09;3.22;;;1.60;;
21326;SDS011;10822;51.532;6.770;2023-08-08T12:07:41;2.83;;;1.38;;
21326;SDS011;10822;51.532;6.770;2023-08-08T12:10:17;3.22;;;1.63;;
21326;SDS011;10822;51.532;6.770;2023-08-08T12:12:43;2.25;;;1.20;;
21326;SDS011;10822;51.532;6.770;2023-08-08T12:15:10;2.58;;;1.27;;
21326;SDS011;10822;51.532;6.770;2023-08-08T12:17:36;1.95;;;1.30;;
21326;SDS011;10822;51.532;6.770;2023-08-08T12:20:04;2.78;;;1.30;;
21326;SDS011;10822;51.532;6.770;2023-08-08T12:22:30;3.92;;;1.70;;
21326;SDS011;10822;51.532;6.770;2023-08-08T12:24:56;2.60;;;1.30;;
21326;SDS011;10822;51.532;6.770;2023-08-08T12:27:22;2.72;;;1.38;;
21326;SDS011;10822;51.532;6.770;2023-08-08T12:29:48;4.40;;;1.40;;
21326;SDS011;10822;51.532;6.770;2023-08-08T12:32:14;4.43;;;1.60;;
21326;SDS011;10822;51.532;6.770;2023-08-08T12:34:40;3.55;;;1.70;;
21326;SDS011;10822;51.532;6.770;2023-08-08T12:37:06;2.35;;;1.40;;
21326;SDS011;10822;51.532;6.770;2023-08-08T12:39:32;3.17;;;1.33;;
21326;SDS011;10822;51.532;6.770;2023-08-08T12:41:58;3.20;;;1.40;;
21326;SDS011;10822;51.532;6.770;2023-08-08T12:44:24;3.40;;;1.70;;
21326;SDS011;10822;51.532;6.770;2023-08-08T12:46:50;2.80;;;1.63;;
21326;SDS011;10822;51.532;6.770;2023-08-08T12:49:16;2.85;;;1.50;;
21326;SDS011;10822;51.532;6.770;2023-08-08T12:51:42;3.47;;;1.50;;
21326;SDS011;10822;51.532;6.770;2023-08-08T12:54:08;5.28;;;1.67;;
21326;SDS011;10822;51.532;6.770;2023-08-08T12:56:34;3.80;;;1.60;;
21326;SDS011;10822;51.532;6.770;2023-08-08T12:59:01;5.75;;;1.67;;
21326;SDS011;10822;51.532;6.770;2023-08-08T13:01:28;4.78;;;1.73;;
21326;SDS011;10822;51.532;6.770;2023-08-08T13:03:54;4.55;;;1.80;;
21326;SDS011;10822;51.532;6.770;2023-08-08T13:06:20;7.50;;;1.70;;
21326;SDS011;10822;51.532;6.770;2023-08-08T13:08:45;4.65;;;1.63;;
21326;SDS011;10822;51.532;6.770;2023-08-08T13:11:11;3.00;;;1.52;;
21326;SDS011;10822;51.532;6.770;2023-08-08T13:13:37;2.65;;;1.50;;
21326;SDS011;10822;51.532;6.770;2023-08-08T13:16:03;4.55;;;1.58;;
21326;SDS011;10822;51.532;6.770;2023-08-08T13:18:29;2.83;;;1.85;;
21326;SDS011;10822;51.532;6.770;2023-08-08T13:20:55;3.03;;;1.52;;
21326;SDS011;10822;51.532;6.770;2023-08-08T13:23:21;3.60;;;1.55;;
21326;SDS011;10822;51.532;6.770;2023-08-08T13:25:47;3.28;;;1.58;;
21326;SDS011;10822;51.532;6.770;2023-08-08T13:28:14;2.58;;;1.88;;
21326;SDS011;10822;51.532;6.770;2023-08-08T13:30:40;3.80;;;1.73;;
21326;SDS011;10822;51.532;6.770;2023-08-08T13:33:08;4.63;;;1.67;;
21326;SDS011;10822;51.532;6.770;2023-08-08T13:35:34;2.90;;;1.60;;
21326;SDS011;10822;51.532;6.770;2023-08-08T13:38:00;4.13;;;1.90;;
21326;SDS011;10822;51.532;6.770;2023-08-08T13:40:26;2.75;;;1.50;;
21326;SDS011;10822;51.532;6.770;2023-08-08T13:42:52;4.88;;;2.30;;
21326;SDS011;10822;51.532;6.770;2023-08-08T13:45:18;4.18;;;1.90;;
21326;SDS011;10822;51.532;6.770;2023-08-08T13:47:45;3.65;;;1.05;;
21326;SDS011;10822;51.532;6.770;2023-08-08T13:50:11;2.97;;;1.20;;
21326;SDS011;10822;51.532;6.770;2023-08-08T13:52:38;2.42;;;1.20;;
21326;SDS011;10822;51.532;6.770;2023-08-08T13:55:05;2.03;;;1.30;;
21326;SDS011;10822;51.532;6.770;2023-08-08T13:57:31;5.88;;;1.30;;
21326;SDS011;10822;51.532;6.770;2023-08-08T13:59:57;2.00;;;1.20;;
21326;SDS011;10822;51.532;6.770;2023-08-08T14:02:23;1.95;;;1.10;;
21326;SDS011;10822;51.532;6.770;2023-08-08T14:04:49;2.63;;;1.30;;
21326;SDS011;10822;51.532;6.770;2023-08-08T14:07:15;4.30;;;1.40;;
21326;SDS011;10822;51.532;6.770;2023-08-08T14:09:41;4.38;;;1.42;;
21326;SDS011;10822;51.532;6.770;2023-08-08T14:12:07;2.80;;;1.35;;
21326;SDS011;10822;51.532;6.770;2023-08-08T14:14:33;4.90;;;1.60;;
21326;SDS011;10822;51.532;6.770;2023-08-08T14:16:59;3.08;;;1.27;;
21326;SDS011;10822;51.532;6.770;2023-08-08T14:19:25;2.15;;;0.95;;
21326;SDS011;10822;51.532;6.770;2023-08-08T14:21:51;1.73;;;0.93;;
21326;SDS011;10822;51.532;6.770;2023-08-08T14:24:17;2.90;;;0.98;;
21326;SDS011;10822;51.532;6.770;2023-08-08T14:26:43;1.83;;;0.80;;
21326;SDS011;10822;51.532;6.770;2023-08-08T14:29:10;2.50;;;1.00;;
21326;SDS011;10822;51.532;6.770;2023-08-08T14:31:36;1.92;;;0.80;;
21326;SDS011;10822;51.532;6.770;2023-08-08T14:34:02;1.75;;;1.10;;
21326;SDS011;10822;51.532;6.770;2023-08-08T14:36:28;3.08;;;1.02;;
21326;SDS011;10822;51.532;6.770;2023-08-08T14:38:54;2.47;;;0.90;;
21326;SDS011;10822;51.532;6.770;2023-08-08T14:41:21;1.25;;;0.70;;
21326;SDS011;10822;51.532;6.770;2023-08-08T14:43:47;1.95;;;0.88;;